createdAt,value
2022-08-26T00:01:19.156Z,8.68
2022-08-26T00:03:56.299Z,10.18
2022-08-26T00:06:22.793Z,10.95
2022-08-26T00:08:49.217Z,13.32
2022-08-26T00:11:15.662Z,11.02
2022-08-26T00:13:57.766Z,11.65
2022-08-26T00:16:26.403Z,11.45
2022-08-26T00:18:53.480Z,13.13
2022-08-26T00:21:20.773Z,13.85
2022-08-26T00:23:47.565Z,16.35
2022-08-26T00:26:14.352Z,14.23
2022-08-26T00:28:41.424Z,15.80
2022-08-26T00:31:07.968Z,16.05
2022-08-26T00:33:38.610Z,18.60
2022-08-26T00:36:06.091Z,17.20
2022-08-26T00:38:33.091Z,19.92
2022-08-26T00:41:00.336Z,21.02
2022-08-26T00:43:27.295Z,23.45
2022-08-26T00:46:07.265Z,25.33
2022-08-26T00:48:36.762Z,26.05
2022-08-26T00:51:14.650Z,24.60
2022-08-26T00:53:47.794Z,33.70
2022-08-26T00:56:33.185Z,27.90
2022-08-26T00:59:04.986Z,24.73
2022-08-26T01:01:31.629Z,21.38
2022-08-26T01:03:59.886Z,31.23
2022-08-26T01:06:27.321Z,29.60
2022-08-26T01:08:54.354Z,31.58
2022-08-26T01:11:20.914Z,24.02
2022-08-26T01:13:50.968Z,22.23
2022-08-26T01:16:17.904Z,28.45
2022-08-26T01:18:45.526Z,27.13
2022-08-26T01:21:23.592Z,29.05
2022-08-26T01:23:51.989Z,37.50
2022-08-26T01:26:34.548Z,25.30
2022-08-26T01:29:05.186Z,27.63
2022-08-26T01:31:38.505Z,24.55
2022-08-26T01:34:12.591Z,28.73
2022-08-26T01:36:40.058Z,32.13
2022-08-26T01:39:07.631Z,25.88
2022-08-26T01:41:35.122Z,27.15
2022-08-26T01:44:03.257Z,26.27
2022-08-26T01:46:31.352Z,29.58
2022-08-26T01:49:02.384Z,28.65
2022-08-26T01:51:31.517Z,31.02
2022-08-26T01:53:58.488Z,30.67
2022-08-26T01:56:26.518Z,28.88
2022-08-26T01:59:02.236Z,28.48
2022-08-26T02:01:29.408Z,26.20
2022-08-26T02:04:10.299Z,27.75
2022-08-26T02:06:38.803Z,21.25
2022-08-26T02:09:07.538Z,33.60
2022-08-26T02:11:34.988Z,23.10
2022-08-26T02:14:11.442Z,22.83
2022-08-26T02:16:42.318Z,29.38
2022-08-26T02:19:16.982Z,22.73
2022-08-26T02:21:51.290Z,26.95
2022-08-26T02:24:27.789Z,25.02
2022-08-26T02:26:55.789Z,23.02
2022-08-26T02:29:26.745Z,24.13
2022-08-26T02:31:55.601Z,22.98
2022-08-26T02:34:28.424Z,28.13
2022-08-26T02:37:00.561Z,22.98
2022-08-26T02:39:29.489Z,27.60
2022-08-26T02:41:57.848Z,22.60
2022-08-26T02:44:25.735Z,27.95
2022-08-26T02:46:52.917Z,26.42
2022-08-26T02:49:21.729Z,29.58
2022-08-26T02:51:49.386Z,23.60
2022-08-26T02:54:17.034Z,24.05
2022-08-26T02:56:44.346Z,22.00
2022-08-26T02:59:12.519Z,21.05
2022-08-26T03:01:40.539Z,24.67
2022-08-26T03:04:09.806Z,20.33
2022-08-26T03:06:37.749Z,19.02
2022-08-26T03:09:05.348Z,25.17
2022-08-26T03:11:33.320Z,22.48
2022-08-26T03:14:00.546Z,20.27
2022-08-26T03:16:32.199Z,17.13
2022-08-26T03:19:00.380Z,24.63
2022-08-26T03:21:27.057Z,23.05
2022-08-26T03:23:53.516Z,21.10
2022-08-26T03:26:20.144Z,21.95
2022-08-26T03:29:05.262Z,23.83
2022-08-26T03:31:31.726Z,20.10
2022-08-26T03:33:59.772Z,21.65
2022-08-26T03:36:26.716Z,19.73
2022-08-26T03:38:53.492Z,19.45
2022-08-26T03:41:21.212Z,22.25
2022-08-26T03:43:50.557Z,24.35
2022-08-26T03:46:18.667Z,19.85
2022-08-26T03:48:45.676Z,20.13
2022-08-26T03:51:14.975Z,21.80
2022-08-26T03:53:45.618Z,22.90
2022-08-26T03:56:12.730Z,24.08
2022-08-26T03:58:39.336Z,24.70
2022-08-26T04:01:09.393Z,19.55
2022-08-26T04:03:54.469Z,21.85
2022-08-26T04:06:20.948Z,18.75
2022-08-26T04:08:48.304Z,19.77
2022-08-26T04:11:24.287Z,16.58
2022-08-26T04:13:50.961Z,19.58
2022-08-26T04:16:17.945Z,19.67
2022-08-26T04:18:46.898Z,19.75
2022-08-26T04:21:15.375Z,20.52
2022-08-26T04:23:47.047Z,21.58
2022-08-26T04:26:15.185Z,20.85
2022-08-26T04:28:41.669Z,15.73
2022-08-26T04:31:12.494Z,15.65
2022-08-26T04:33:41.870Z,18.50
2022-08-26T04:36:08.928Z,22.33
2022-08-26T04:38:35.390Z,17.77
2022-08-26T04:41:03.232Z,18.35
2022-08-26T04:43:31.953Z,17.73
2022-08-26T04:46:02.350Z,17.38
2022-08-26T04:48:30.643Z,16.02
2022-08-26T04:50:58.463Z,21.60
2022-08-26T04:53:25.890Z,21.40
2022-08-26T04:55:52.489Z,17.02
2022-08-26T04:58:22.909Z,17.50
2022-08-26T05:00:52.124Z,19.85
2022-08-26T05:03:20.843Z,22.30
2022-08-26T05:05:49.864Z,20.65
2022-08-26T05:08:17.956Z,16.23
2022-08-26T05:10:56.653Z,17.52
2022-08-26T05:13:26.216Z,19.52
2022-08-26T05:15:54.516Z,14.95
2022-08-26T05:18:24.570Z,13.65
2022-08-26T05:20:54.812Z,16.73
2022-08-26T05:23:23.425Z,18.80
2022-08-26T05:25:57.049Z,15.10
2022-08-26T05:28:26.274Z,13.85
2022-08-26T05:30:52.893Z,15.43
2022-08-26T05:33:19.471Z,16.58
2022-08-26T05:35:46.287Z,17.98
2022-08-26T05:38:17.339Z,16.02
2022-08-26T05:40:47.092Z,17.63
2022-08-26T05:43:14.141Z,16.15
2022-08-26T05:45:46.630Z,16.90
2022-08-26T05:48:16.243Z,20.65
2022-08-26T05:50:49.777Z,16.42
2022-08-26T05:53:18.909Z,15.02
2022-08-26T05:55:49.790Z,16.13
2022-08-26T05:58:20.098Z,18.48
2022-08-26T06:00:56.836Z,12.63
2022-08-26T06:03:23.492Z,13.10
2022-08-26T06:05:49.924Z,15.70
2022-08-26T06:08:16.443Z,19.35
2022-08-26T06:10:48.703Z,15.07
2022-08-26T06:13:19.397Z,15.55
2022-08-26T06:15:48.713Z,17.15
2022-08-26T06:18:17.271Z,14.63
2022-08-26T06:20:57.456Z,15.10
2022-08-26T06:23:45.055Z,15.50
2022-08-26T06:26:12.639Z,17.15
2022-08-26T06:28:39.242Z,13.55
2022-08-26T06:31:06.036Z,14.98
2022-08-26T06:33:33.129Z,15.45
2022-08-26T06:36:00.982Z,14.38
2022-08-26T06:38:28.426Z,18.65
2022-08-26T06:40:54.919Z,14.13
2022-08-26T06:43:24.403Z,14.50
2022-08-26T06:45:51.775Z,12.15
2022-08-26T06:48:21.375Z,16.23
2022-08-26T06:50:48.171Z,16.63
2022-08-26T06:53:17.002Z,14.27
2022-08-26T06:55:46.240Z,13.35
2022-08-26T06:58:14.074Z,13.35
2022-08-26T07:00:41.684Z,16.08
2022-08-26T07:03:14.039Z,12.93
2022-08-26T07:05:40.652Z,13.95
2022-08-26T07:08:07.064Z,12.75
2022-08-26T07:10:36.192Z,14.63
2022-08-26T07:13:02.668Z,12.30
2022-08-26T07:15:31.538Z,12.15
2022-08-26T07:17:58.144Z,12.30
2022-08-26T07:20:24.601Z,7.65
2022-08-26T07:22:51.449Z,9.50
2022-08-26T07:25:17.926Z,13.20
2022-08-26T07:27:46.334Z,9.90
2022-08-26T07:30:20.569Z,9.45
2022-08-26T07:32:47.391Z,10.98
2022-08-26T07:35:14.590Z,8.77
2022-08-26T07:37:41.064Z,12.93
2022-08-26T07:40:08.958Z,11.63
2022-08-26T07:42:35.975Z,9.20
2022-08-26T07:45:02.571Z,8.70
2022-08-26T07:47:29.189Z,8.15
2022-08-26T07:49:57.347Z,8.77
2022-08-26T07:52:27.446Z,12.07
2022-08-26T07:54:56.121Z,8.00
2022-08-26T07:57:24.243Z,6.15
2022-08-26T07:59:51.264Z,9.73
2022-08-26T08:02:17.696Z,13.25
2022-08-26T08:04:45.082Z,9.50
2022-08-26T08:07:12.520Z,11.57
2022-08-26T08:09:40.765Z,8.98
2022-08-26T08:12:07.372Z,8.40
2022-08-26T08:14:36.365Z,5.45
2022-08-26T08:17:04.180Z,6.90
2022-08-26T08:19:36.951Z,7.13
2022-08-26T08:22:18.046Z,6.93
2022-08-26T08:24:46.739Z,8.05
2022-08-26T08:27:18.112Z,6.28
2022-08-26T08:29:47.948Z,7.30
2022-08-26T08:32:15.699Z,8.23
2022-08-26T08:37:14.042Z,5.45
2022-08-26T08:39:40.845Z,7.15
2022-08-26T08:42:16.676Z,6.95
2022-08-26T08:44:51.936Z,9.32
2022-08-26T08:47:35.733Z,8.07
2022-08-26T08:50:21.304Z,9.40
2022-08-26T08:52:55.645Z,6.25
2022-08-26T08:55:27.170Z,7.10
2022-08-26T08:58:08.069Z,6.28
2022-08-26T09:00:54.140Z,8.48
2022-08-26T09:03:32.783Z,6.00
2022-08-26T09:06:01.541Z,7.32
2022-08-26T09:08:35.657Z,8.35
2022-08-26T09:11:04.274Z,8.75
2022-08-26T09:13:31.904Z,7.55
2022-08-26T09:16:19.158Z,5.22
2022-08-26T09:19:02.124Z,7.88
2022-08-26T09:21:31.292Z,6.60
2022-08-26T09:23:58.101Z,7.72
2022-08-26T09:26:41.019Z,8.13
2022-08-26T09:31:53.190Z,5.45
2022-08-26T09:34:27.762Z,5.28
2022-08-26T09:36:56.831Z,12.35
2022-08-26T09:39:37.491Z,7.85
2022-08-26T09:42:09.603Z,6.22
2022-08-26T09:44:54.293Z,6.32
2022-08-26T09:47:25.632Z,6.57
2022-08-26T09:50:18.481Z,8.40
2022-08-26T09:52:44.985Z,6.20
2022-08-26T09:55:20.413Z,7.82
2022-08-26T09:57:51.144Z,7.85
2022-08-26T10:00:31.785Z,9.05
2022-08-26T10:03:00.685Z,6.95
2022-08-26T10:05:48.188Z,6.63
2022-08-26T10:08:26.800Z,7.10
2022-08-26T10:10:56.172Z,8.98
2022-08-26T10:13:40.952Z,7.05
2022-08-26T10:16:22.090Z,10.52
2022-08-26T10:19:08.057Z,8.05
2022-08-26T10:21:41.329Z,8.18
2022-08-26T10:24:15.139Z,6.78
2022-08-26T10:27:04.319Z,5.78
2022-08-26T10:29:37.696Z,6.28
2022-08-26T10:32:23.506Z,6.30
2022-08-26T10:34:51.953Z,5.13
2022-08-26T10:37:23.734Z,6.88
2022-08-26T10:40:01.830Z,6.70
2022-08-26T10:42:53.030Z,6.38
2022-08-26T10:45:25.259Z,6.07
2022-08-26T10:48:09.814Z,6.35
2022-08-26T10:50:39.052Z,6.40
2022-08-26T10:53:39.898Z,6.72
2022-08-26T10:56:43.344Z,12.43
2022-08-26T10:59:20.564Z,4.75
2022-08-26T11:01:56.805Z,5.60
2022-08-26T11:05:11.429Z,6.20
2022-08-26T11:07:46.763Z,7.95
2022-08-26T11:10:16.252Z,7.45
2022-08-26T11:12:42.866Z,6.03
2022-08-26T11:15:31.548Z,4.88
2022-08-26T11:17:57.901Z,5.75
2022-08-26T11:20:27.746Z,6.72
2022-08-26T11:22:56.568Z,5.03
2022-08-26T11:25:29.965Z,5.95
2022-08-26T11:27:59.712Z,5.72
2022-08-26T11:30:42.572Z,11.20
2022-08-26T11:33:10.319Z,7.60
2022-08-26T11:35:37.560Z,3.78
2022-08-26T11:38:13.142Z,4.50
2022-08-26T11:40:41.556Z,5.40
2022-08-26T11:43:18.536Z,4.35
2022-08-26T11:45:59.431Z,4.95
2022-08-26T11:48:35.043Z,4.50
2022-08-26T11:51:03.483Z,3.40
2022-08-26T11:53:33.334Z,4.70
2022-08-26T11:56:04.089Z,6.13
2022-08-26T11:58:31.840Z,3.75
2022-08-26T12:01:01.554Z,4.15
2022-08-26T12:03:50.138Z,5.30
2022-08-26T12:06:28.248Z,4.53
2022-08-26T12:08:59.083Z,5.88
2022-08-26T12:11:32.740Z,2.88
2022-08-26T12:14:07.372Z,3.95
2022-08-26T12:16:39.957Z,7.10
2022-08-26T12:19:26.309Z,4.40
2022-08-26T12:22:07.968Z,3.92
2022-08-26T12:24:35.584Z,4.70
2022-08-26T12:27:11.117Z,4.57
2022-08-26T12:29:39.125Z,3.70
2022-08-26T12:32:09.004Z,4.63
2022-08-26T12:34:35.993Z,6.35
2022-08-26T12:37:03.187Z,6.97
2022-08-26T12:39:41.173Z,6.00
2022-08-26T12:42:15.463Z,5.43
2022-08-26T12:44:54.144Z,3.35
2022-08-26T12:47:35.149Z,3.42
2022-08-26T12:50:23.624Z,3.22
2022-08-26T12:53:01.567Z,4.38
2022-08-26T12:55:45.296Z,4.95
2022-08-26T12:58:11.712Z,4.53
2022-08-26T13:00:41.221Z,6.47
2022-08-26T13:03:45.437Z,7.70
2022-08-26T13:06:31.617Z,4.25
